Terminal Aerodrome Forecast
Issued by NWS Sioux Falls, SD

Home | Current Version | Previous Version | Graphics & Text | Print | Product List | Glossary Off
Versions: 1 2 3 4 5 6 7 8 9 10 11 12 13 14 15 16 17 18 19 20 21

211
FTUS43 KFSD 041328 AAB
TAFFSD
TAF AMD
KFSD 041328Z 0413/0512 26007KT P6SM SCT025 BKN120
      TEMPO 0413/0415 -SN BKN025
     FM041500 27005KT P6SM SCT150
     FM041700 31009KT P6SM SCT200
     FM042300 29006KT P6SM FEW070
     FM050500 VRB03KT P6SM BKN130=

USA.gov is the U.S. government's official web portal to all federal, state and local government web resources and services.